Time;durP1;ratioP1;P1;durP2;ratioP2;P2;SDS_P1;SDS_P2;PMS_P1;PMS_P2;Temp;Humidity;BMP_temperature;BMP_pressure;BME280_temperature;BME280_humidity;BME280_pressure;Samples;Min_cycle;Max_cycle;Signal;HPM_P1;HPM_P2
2022/09/27 00:00:58;;;;;;;;;;;12.90;91.30;;;;;;5044812;28;19913;-67
2022/09/27 00:03:23;;;;;;;;;;;12.90;91.20;;;;;;5026680;28;20327;-68
2022/09/27 00:05:59;;;;;;;;;;;12.90;91.20;;;;;;5044776;28;19917;-67
2022/09/27 00:08:27;;;;;;;;;;;12.90;91.20;;;;;;5044966;28;19913;-67
2022/09/27 00:11:02;;;;;;;;;;;12.90;91.20;;;;;;5044674;28;19964;-68
2022/09/27 00:13:28;;;;;;;;;;;12.90;91.20;;;;;;5045295;28;20331;-68
2022/09/27 00:16:03;;;;;;;;;;;12.90;91.20;;;;;;5044769;28;20020;-68
2022/09/27 00:18:30;;;;;;;;;;;12.80;91.20;;;;;;5027303;28;19966;-68
2022/09/27 00:20:55;;;;;;;;;;;12.90;91.30;;;;;;5044969;28;19985;-68
2022/09/27 00:23:21;;;;;;;;;;;12.80;91.30;;;;;;5044633;28;20419;-68
2022/09/27 00:25:56;;;;;;;;;;;12.80;91.30;;;;;;5045032;28;20570;-68
2022/09/27 00:28:22;;;;;;;;;;;12.80;91.30;;;;;;5046580;28;19913;-68
2022/09/27 00:30:47;;;;;;;;;;;12.80;91.20;;;;;;5048519;28;19955;-68
2022/09/27 00:33:13;;;;;;;;;;;12.80;91.20;;;;;;5048597;28;20293;-67
2022/09/27 00:35:39;;;;;;;;;;;12.80;91.10;;;;;;5048676;28;19913;-67
2022/09/27 00:38:05;;;;;;;;;;;12.80;91.30;;;;;;5048372;28;19920;-68
2022/09/27 00:40:30;;;;;;;;;;;12.80;91.20;;;;;;5047944;28;19921;-68
2022/09/27 00:42:56;;;;;;;;;;;12.80;91.20;;;;;;5048139;28;19916;-67
2022/09/27 00:45:21;;;;;;;;;;;12.80;91.20;;;;;;5048038;28;19974;-68
2022/09/27 00:47:55;;;;;;;;;;;12.80;91.30;;;;;;5048450;28;20608;-67
2022/09/27 00:50:28;;;;;;;;;;;12.80;91.30;;;;;;5048208;28;19920;-67
2022/09/27 00:52:54;;;;;;;;;;;12.80;91.20;;;;;;5048589;28;19913;-68
2022/09/27 00:55:23;;;;;;;;;;;12.80;91.20;;;;;;5046647;28;19927;-68
2022/09/27 00:57:49;;;;;;;;;;;12.70;91.20;;;;;;5048415;28;19955;-68
2022/09/27 01:00:15;;;;;;;;;;;12.70;91.30;;;;;;5050410;28;19913;-68
2022/09/27 01:02:42;;;;;;;;;;;12.70;91.30;;;;;;5047630;28;19928;-67
2022/09/27 01:05:09;;;;;;;;;;;12.70;91.20;;;;;;5048261;28;19944;-68
2022/09/27 01:07:35;;;;;;;;;;;12.70;91.20;;;;;;5047905;28;20063;-68
2022/09/27 01:10:01;;;;;;;;;;;12.70;91.30;;;;;;5048016;28;20101;-68
2022/09/27 01:12:26;;;;;;;;;;;12.70;91.30;;;;;;5047347;28;20671;-68
2022/09/27 01:15:04;;;;;;;;;;;12.70;91.30;;;;;;5047390;28;19912;-68
2022/09/27 01:17:29;;;;;;;;;;;12.70;91.30;;;;;;5047870;28;19917;-68
2022/09/27 01:20:18;;;;;;;;;;;12.70;91.30;;;;;;5047494;28;19913;-68
2022/09/27 01:22:44;;;;;;;;;;;12.70;91.40;;;;;;5047193;28;19990;-68
2022/09/27 01:25:28;;;;;;;;;;;12.70;91.20;;;;;;5047391;28;19978;-68
2022/09/27 01:28:12;;;;;;;;;;;12.60;91.30;;;;;;5047610;28;19948;-67
2022/09/27 01:30:54;;;;;;;;;;;12.70;91.30;;;;;;5047238;28;19919;-68
2022/09/27 01:33:43;;;;;;;;;;;12.60;91.30;;;;;;5047378;28;20374;-68
2022/09/27 01:36:19;;;;;;;;;;;12.60;91.40;;;;;;5036921;28;19944;-68
2022/09/27 01:39:05;;;;;;;;;;;12.60;91.20;;;;;;5047196;28;19920;-68
2022/09/27 01:41:38;;;;;;;;;;;12.60;91.30;;;;;;5046623;28;19912;-68
2022/09/27 01:44:07;;;;;;;;;;;12.60;91.20;;;;;;5047412;28;19971;-68
2022/09/27 01:46:35;;;;;;;;;;;12.60;91.20;;;;;;5047083;28;19913;-68
2022/09/27 01:49:04;;;;;;;;;;;12.60;91.20;;;;;;5046531;28;19916;-68
2022/09/27 01:51:32;;;;;;;;;;;12.60;91.30;;;;;;5046860;28;19913;-68
2022/09/27 01:54:02;;;;;;;;;;;12.60;91.30;;;;;;5046834;28;19913;-68
2022/09/27 01:56:33;;;;;;;;;;;12.60;91.30;;;;;;5046965;28;19913;-68
2022/09/27 01:59:13;;;;;;;;;;;12.60;91.30;;;;;;5046507;28;20429;-67
2022/09/27 02:01:40;;;;;;;;;;;12.60;91.30;;;;;;5046543;28;19919;-68
2022/09/27 02:04:09;;;;;;;;;;;12.60;91.20;;;;;;5046496;28;20024;-67
2022/09/27 02:06:38;;;;;;;;;;;12.60;91.20;;;;;;5047067;28;19913;-68
2022/09/27 02:09:27;;;;;;;;;;;12.60;91.20;;;;;;5046915;28;20404;-68
2022/09/27 02:11:55;;;;;;;;;;;12.60;91.20;;;;;;5028948;28;19913;-68
2022/09/27 02:14:23;;;;;;;;;;;12.60;91.20;;;;;;5046773;28;20659;-68
2022/09/27 02:17:03;;;;;;;;;;;12.60;91.30;;;;;;5046488;28;19913;-68
2022/09/27 02:19:35;;;;;;;;;;;12.60;91.30;;;;;;5046625;28;19919;-68
2022/09/27 02:22:11;;;;;;;;;;;12.60;91.20;;;;;;5045957;28;20305;-68
2022/09/27 02:25:00;;;;;;;;;;;12.60;91.20;;;;;;5046518;28;19925;-68
2022/09/27 02:27:28;;;;;;;;;;;12.50;91.30;;;;;;5037508;28;19919;-68
2022/09/27 02:30:00;;;;;;;;;;;12.60;91.50;;;;;;5046601;28;19920;-67
2022/09/27 02:32:26;;;;;;;;;;;12.60;91.20;;;;;;5046360;28;19924;-68
2022/09/27 02:34:53;;;;;;;;;;;12.50;91.30;;;;;;5046537;28;19912;-68
2022/09/27 02:37:19;;;;;;;;;;;12.60;91.30;;;;;;5046297;28;19917;-67
2022/09/27 02:39:44;;;;;;;;;;;12.50;91.30;;;;;;5045958;28;20285;-68
2022/09/27 02:42:10;;;;;;;;;;;12.50;91.40;;;;;;5028329;28;20034;-68
2022/09/27 02:44:36;;;;;;;;;;;12.50;91.40;;;;;;5046261;28;19912;-68
2022/09/27 02:47:11;;;;;;;;;;;12.50;91.40;;;;;;5046337;28;20289;-68
2022/09/27 02:49:37;;;;;;;;;;;12.50;91.40;;;;;;5045828;28;19912;-68
2022/09/27 02:52:22;;;;;;;;;;;12.50;91.30;;;;;;5045238;28;19920;-68
2022/09/27 02:54:58;;;;;;;;;;;12.50;91.40;;;;;;5043026;28;20007;-68
2022/09/27 02:57:40;;;;;;;;;;;12.50;91.40;;;;;;5044456;28;20644;-68
2022/09/27 03:00:10;;;;;;;;;;;12.50;91.30;;;;;;5041472;28;19956;-68
2022/09/27 03:02:42;;;;;;;;;;;12.40;91.30;;;;;;5041378;28;19979;-68
2022/09/27 03:05:09;;;;;;;;;;;12.40;91.30;;;;;;5045817;28;20413;-68
2022/09/27 03:07:37;;;;;;;;;;;12.50;91.40;;;;;;5027859;28;20546;-68
2022/09/27 03:10:03;;;;;;;;;;;12.50;91.40;;;;;;5045900;28;19974;-68
2022/09/27 03:12:28;;;;;;;;;;;12.50;91.30;;;;;;5045367;28;19920;-68
2022/09/27 03:14:55;;;;;;;;;;;12.50;91.40;;;;;;5045598;28;19917;-68
2022/09/27 03:17:21;;;;;;;;;;;12.50;91.40;;;;;;5041161;28;20318;-68
2022/09/27 03:19:46;;;;;;;;;;;12.40;91.40;;;;;;5045617;28;19951;-68
2022/09/27 03:22:12;;;;;;;;;;;12.40;91.40;;;;;;5045470;28;19919;-69
2022/09/27 03:24:38;;;;;;;;;;;12.40;91.30;;;;;;5045541;28;20647;-69
2022/09/27 03:27:03;;;;;;;;;;;12.40;91.40;;;;;;5045658;28;19913;-69
2022/09/27 03:29:29;;;;;;;;;;;12.40;91.40;;;;;;5045201;28;20047;-69
2022/09/27 03:31:54;;;;;;;;;;;12.40;91.60;;;;;;5045129;28;19913;-69
2022/09/27 03:34:21;;;;;;;;;;;12.40;91.30;;;;;;5024698;28;19917;-69
2022/09/27 03:36:46;;;;;;;;;;;12.40;91.30;;;;;;5045858;28;20445;-69
2022/09/27 03:39:12;;;;;;;;;;;12.40;91.30;;;;;;5045306;28;20010;-69
2022/09/27 03:41:37;;;;;;;;;;;12.40;91.30;;;;;;5045231;28;20611;-68
2022/09/27 03:44:03;;;;;;;;;;;12.40;91.30;;;;;;5027558;28;19916;-68
2022/09/27 03:46:28;;;;;;;;;;;12.30;91.40;;;;;;5026919;28;20066;-69
2022/09/27 03:48:54;;;;;;;;;;;12.30;91.40;;;;;;5045403;28;20613;-69
2022/09/27 03:51:19;;;;;;;;;;;12.30;91.40;;;;;;5045112;28;20785;-69
2022/09/27 03:53:45;;;;;;;;;;;12.30;91.30;;;;;;5045325;28;19961;-69
2022/09/27 03:56:11;;;;;;;;;;;12.30;91.30;;;;;;5043362;28;19917;-69
2022/09/27 03:58:36;;;;;;;;;;;12.30;91.30;;;;;;5045179;28;19939;-69
2022/09/27 04:01:02;;;;;;;;;;;12.30;91.30;;;;;;5045035;28;19913;-68
2022/09/27 04:03:27;;;;;;;;;;;12.30;91.30;;;;;;5046416;28;20380;-69
2022/09/27 04:05:53;;;;;;;;;;;12.20;91.30;;;;;;5048809;28;19955;-69
2022/09/27 04:08:21;;;;;;;;;;;12.20;91.30;;;;;;5048845;28;19955;-69
2022/09/27 04:10:46;;;;;;;;;;;12.20;91.30;;;;;;5048971;28;19913;-69
2022/09/27 04:13:12;;;;;;;;;;;12.20;91.30;;;;;;5049166;28;19981;-69
2022/09/27 04:15:40;;;;;;;;;;;12.20;91.30;;;;;;5049181;28;19913;-68
2022/09/27 04:18:06;;;;;;;;;;;12.20;91.30;;;;;;5049164;28;19916;-69
2022/09/27 04:20:32;;;;;;;;;;;12.20;91.30;;;;;;5048597;28;20292;-68
2022/09/27 04:22:57;;;;;;;;;;;12.20;91.30;;;;;;5049255;28;20012;-68
2022/09/27 04:25:23;;;;;;;;;;;12.20;91.30;;;;;;5048120;28;20007;-69
2022/09/27 04:27:53;;;;;;;;;;;12.20;91.40;;;;;;5048960;28;19909;-68
2022/09/27 04:30:19;;;;;;;;;;;12.20;91.30;;;;;;5048699;28;19919;-69
2022/09/27 04:32:45;;;;;;;;;;;12.20;91.30;;;;;;5048540;28;20270;-68
2022/09/27 04:37:55;;;;;;;;;;;12.20;91.30;;;;;;5046279;28;19943;-68
2022/09/27 04:40:21;;;;;;;;;;;12.10;91.40;;;;;;5048466;28;20604;-69
2022/09/27 04:42:47;;;;;;;;;;;12.10;91.30;;;;;;5047852;28;19923;-68
2022/09/27 04:45:16;;;;;;;;;;;12.20;91.30;;;;;;5047768;28;20420;-69
2022/09/27 04:47:45;;;;;;;;;;;12.20;91.30;;;;;;5048333;28;19920;-68
2022/09/27 04:50:11;;;;;;;;;;;12.10;91.40;;;;;;5048512;28;19970;-68
2022/09/27 04:52:36;;;;;;;;;;;12.10;91.30;;;;;;5047838;28;20337;-69
2022/09/27 04:55:02;;;;;;;;;;;12.20;91.30;;;;;;5048392;28;20392;-69
2022/09/27 04:57:28;;;;;;;;;;;12.10;91.30;;;;;;5048372;28;19912;-69
2022/09/27 04:59:53;;;;;;;;;;;12.20;91.30;;;;;;5051971;28;20231;-69
2022/09/27 05:02:19;;;;;;;;;;;12.10;91.20;;;;;;5047926;28;19919;-69
2022/09/27 05:04:44;;;;;;;;;;;12.10;91.30;;;;;;5027443;28;19930;-69
2022/09/27 05:07:10;;;;;;;;;;;12.20;91.30;;;;;;5047906;28;19917;-68
2022/09/27 05:09:35;;;;;;;;;;;12.20;91.30;;;;;;5029791;28;20348;-68
2022/09/27 05:12:01;;;;;;;;;;;12.10;91.30;;;;;;5047398;28;19998;-68
2022/09/27 05:14:27;;;;;;;;;;;12.10;91.30;;;;;;5046691;28;19962;-69
2022/09/27 05:16:54;;;;;;;;;;;12.10;91.30;;;;;;5047776;28;19920;-68
2022/09/27 05:19:19;;;;;;;;;;;12.10;91.30;;;;;;5048077;28;19913;-69
2022/09/27 05:21:45;;;;;;;;;;;12.10;91.20;;;;;;5047553;28;19920;-69
2022/09/27 05:24:10;;;;;;;;;;;12.10;91.30;;;;;;5046646;28;19920;-69
2022/09/27 05:26:36;;;;;;;;;;;12.10;91.60;;;;;;5047116;28;19917;-69
2022/09/27 05:29:02;;;;;;;;;;;12.10;91.30;;;;;;5047732;28;19912;-69
2022/09/27 05:31:28;;;;;;;;;;;12.10;91.30;;;;;;5029576;28;19920;-69
2022/09/27 05:33:54;;;;;;;;;;;12.10;91.30;;;;;;5047804;28;19912;-69
2022/09/27 05:36:20;;;;;;;;;;;12.10;91.30;;;;;;5047585;28;20385;-68
2022/09/27 05:38:45;;;;;;;;;;;12.10;91.30;;;;;;5043277;28;20011;-69
2022/09/27 05:41:11;;;;;;;;;;;12.00;91.30;;;;;;5047060;28;20579;-69
2022/09/27 05:43:36;;;;;;;;;;;12.10;91.30;;;;;;5046956;28;19932;-69
2022/09/27 05:46:04;;;;;;;;;;;12.10;91.20;;;;;;5047276;28;19927;-68
2022/09/27 05:48:30;;;;;;;;;;;12.10;91.20;;;;;;5046967;28;19912;-68
2022/09/27 05:50:55;;;;;;;;;;;12.10;91.30;;;;;;5047051;28;19917;-69
2022/09/27 05:53:21;;;;;;;;;;;12.10;91.20;;;;;;5046960;28;19923;-68
2022/09/27 05:55:47;;;;;;;;;;;12.00;91.30;;;;;;5044703;28;19912;-69
2022/09/27 05:58:15;;;;;;;;;;;12.00;91.30;;;;;;5029271;28;19920;-69
2022/09/27 06:00:41;;;;;;;;;;;12.00;91.30;;;;;;5044746;28;19913;-69
2022/09/27 06:03:06;;;;;;;;;;;12.00;91.20;;;;;;5044865;28;19923;-69
2022/09/27 06:05:35;;;;;;;;;;;12.00;91.20;;;;;;5046986;28;19912;-69
2022/09/27 06:08:03;;;;;;;;;;;12.00;91.30;;;;;;5046876;28;19917;-69
2022/09/27 06:10:29;;;;;;;;;;;12.00;91.30;;;;;;5046758;28;19923;-69
2022/09/27 06:13:05;;;;;;;;;;;12.00;91.20;;;;;;5046568;28;19912;-69
2022/09/27 06:15:32;;;;;;;;;;;12.10;91.10;;;;;;5046697;28;19917;-69
2022/09/27 06:18:02;;;;;;;;;;;12.00;91.20;;;;;;5046447;28;19913;-69
2022/09/27 06:20:27;;;;;;;;;;;12.00;91.10;;;;;;5046425;28;19950;-69
2022/09/27 06:22:53;;;;;;;;;;;12.10;91.10;;;;;;5046170;28;19956;-69
2022/09/27 06:25:19;;;;;;;;;;;12.10;91.00;;;;;;5046172;28;19939;-69
2022/09/27 06:27:44;;;;;;;;;;;12.10;91.10;;;;;;5046325;28;20377;-69
2022/09/27 06:30:11;;;;;;;;;;;12.10;91.00;;;;;;5046312;28;19927;-69
2022/09/27 06:32:37;;;;;;;;;;;12.10;91.00;;;;;;5046124;28;19913;-69
2022/09/27 06:35:04;;;;;;;;;;;12.10;91.00;;;;;;5046170;28;19920;-69
2022/09/27 06:37:30;;;;;;;;;;;12.10;91.00;;;;;;5046280;28;19921;-69
2022/09/27 06:39:56;;;;;;;;;;;12.10;91.10;;;;;;5046067;28;19912;-69
2022/09/27 06:42:21;;;;;;;;;;;12.10;91.00;;;;;;5045424;28;19917;-69
2022/09/27 06:44:48;;;;;;;;;;;12.10;91.00;;;;;;5028130;28;19966;-68
2022/09/27 06:47:17;;;;;;;;;;;12.10;91.00;;;;;;5046164;28;20518;-69
2022/09/27 06:49:42;;;;;;;;;;;12.10;91.00;;;;;;5046061;28;19970;-70
2022/09/27 06:52:08;;;;;;;;;;;12.10;90.90;;;;;;5028033;28;19916;-69
2022/09/27 06:54:33;;;;;;;;;;;12.10;90.90;;;;;;5045984;28;19913;-70
2022/09/27 06:56:59;;;;;;;;;;;12.10;90.90;;;;;;5046527;28;20629;-70
2022/09/27 07:02:09;;;;;;;;;;;12.10;91.00;;;;;;5045718;28;19916;-69
2022/09/27 07:04:34;;;;;;;;;;;12.10;90.90;;;;;;5045706;28;19924;-69
2022/09/27 07:07:00;;;;;;;;;;;12.10;91.00;;;;;;5045840;28;19916;-69
2022/09/27 07:09:25;;;;;;;;;;;12.10;91.00;;;;;;5045681;28;19913;-69
2022/09/27 07:11:54;;;;;;;;;;;12.20;91.00;;;;;;5045456;28;20513;-69
2022/09/27 07:14:20;;;;;;;;;;;12.10;90.90;;;;;;5045543;28;20096;-69
2022/09/27 07:16:46;;;;;;;;;;;12.20;91.00;;;;;;5046056;28;20413;-69
2022/09/27 07:19:13;;;;;;;;;;;12.10;90.90;;;;;;5045530;28;20011;-69
2022/09/27 07:21:39;;;;;;;;;;;12.20;90.90;;;;;;5045566;28;20385;-69
2022/09/27 07:24:04;;;;;;;;;;;12.10;90.80;;;;;;5044269;28;19924;-69
2022/09/27 07:26:30;;;;;;;;;;;12.10;90.90;;;;;;5045626;28;19924;-69
2022/09/27 07:28:56;;;;;;;;;;;12.20;90.90;;;;;;5045624;28;19916;-69
2022/09/27 07:31:21;;;;;;;;;;;12.20;90.80;;;;;;5044716;28;20020;-69
2022/09/27 07:33:47;;;;;;;;;;;12.20;90.90;;;;;;5045431;28;19917;-69
2022/09/27 07:36:13;;;;;;;;;;;12.20;90.80;;;;;;5045524;28;20007;-69
2022/09/27 07:38:38;;;;;;;;;;;12.20;90.80;;;;;;5044676;28;20407;-70
2022/09/27 07:41:07;;;;;;;;;;;12.20;90.80;;;;;;5045286;28;20568;-69
2022/09/27 07:43:33;;;;;;;;;;;12.20;90.80;;;;;;5045324;28;20443;-69
2022/09/27 07:45:58;;;;;;;;;;;12.20;90.80;;;;;;5045634;28;19916;-70
2022/09/27 07:48:24;;;;;;;;;;;12.20;90.80;;;;;;5045339;28;20269;-69
2022/09/27 07:50:51;;;;;;;;;;;12.20;90.80;;;;;;5045614;28;19916;-69
2022/09/27 07:53:17;;;;;;;;;;;12.20;90.80;;;;;;5045364;28;20366;-69
2022/09/27 07:55:42;;;;;;;;;;;12.20;90.80;;;;;;5040451;28;19928;-69
2022/09/27 07:58:09;;;;;;;;;;;12.30;90.70;;;;;;5045404;28;20430;-69
2022/09/27 08:00:36;;;;;;;;;;;12.30;90.70;;;;;;5045001;28;20277;-69
2022/09/27 08:03:05;;;;;;;;;;;12.30;90.60;;;;;;5045304;28;19917;-69
2022/09/27 08:05:32;;;;;;;;;;;12.30;90.70;;;;;;5026684;28;19920;-69
2022/09/27 08:07:57;;;;;;;;;;;12.30;90.70;;;;;;5045146;28;19919;-70
2022/09/27 08:10:26;;;;;;;;;;;12.30;90.70;;;;;;5045024;28;19912;-69
2022/09/27 08:12:51;;;;;;;;;;;12.30;90.70;;;;;;5027160;28;19924;-69
2022/09/27 08:15:17;;;;;;;;;;;12.30;90.70;;;;;;5045003;28;19909;-69
2022/09/27 08:17:42;;;;;;;;;;;12.30;90.60;;;;;;5045067;28;20011;-70
2022/09/27 08:20:08;;;;;;;;;;;12.30;90.60;;;;;;5045000;28;19920;-69
2022/09/27 08:22:38;;;;;;;;;;;12.40;90.60;;;;;;5044938;28;20350;-69
2022/09/27 08:25:04;;;;;;;;;;;12.30;90.60;;;;;;5043788;28;19914;-69
2022/09/27 08:27:29;;;;;;;;;;;12.40;90.70;;;;;;5045251;28;20384;-69
2022/09/27 08:29:55;;;;;;;;;;;12.40;90.70;;;;;;5045172;28;19913;-69
2022/09/27 08:32:20;;;;;;;;;;;12.40;90.70;;;;;;5044881;28;19917;-69
2022/09/27 08:34:46;;;;;;;;;;;12.40;90.60;;;;;;5045123;28;19959;-69
2022/09/27 08:37:11;;;;;;;;;;;12.30;90.60;;;;;;5044786;28;19921;-69
2022/09/27 08:39:37;;;;;;;;;;;12.40;90.70;;;;;;5044993;28;20000;-69
2022/09/27 08:42:11;;;;;;;;;;;12.40;90.60;;;;;;5044877;28;19920;-69
2022/09/27 08:44:42;;;;;;;;;;;12.50;90.50;;;;;;5044952;28;19956;-69
2022/09/27 08:47:26;;;;;;;;;;;12.50;90.40;;;;;;5042295;28;19955;-69
2022/09/27 08:49:57;;;;;;;;;;;12.60;90.40;;;;;;5045407;28;19978;-70
2022/09/27 08:52:26;;;;;;;;;;;12.60;90.40;;;;;;5050481;28;19917;-69
2022/09/27 08:54:52;;;;;;;;;;;12.60;90.30;;;;;;5028261;28;20023;-69
2022/09/27 08:57:18;;;;;;;;;;;12.60;90.20;;;;;;5048378;28;19963;-70
2022/09/27 09:00:07;;;;;;;;;;;12.60;90.30;;;;;;5030553;28;20243;-69
2022/09/27 09:02:33;;;;;;;;;;;12.60;90.30;;;;;;5037593;28;19913;-70
2022/09/27 09:05:01;;;;;;;;;;;12.70;90.30;;;;;;5048560;28;19916;-69
2022/09/27 09:07:31;;;;;;;;;;;12.70;90.30;;;;;;5048062;28;19916;-69
2022/09/27 09:12:45;;;;;;;;;;;12.70;90.20;;;;;;5047963;28;19920;-69
2022/09/27 09:13:31;;;;;;;;;;;12.70;90.20;;;;;;5045452;28;19996;-69
2022/09/27 09:15:59;;;;;;;;;;;12.80;90.10;;;;;;5022480;28;20350;-69
2022/09/27 09:18:41;;;;;;;;;;;12.80;90.20;;;;;;5047667;28;20000;-69
2022/09/27 09:21:22;;;;;;;;;;;12.80;90.10;;;;;;5047822;28;19939;-69
2022/09/27 09:23:56;;;;;;;;;;;12.80;90.10;;;;;;5046605;28;20523;-69
2022/09/27 09:26:24;;;;;;;;;;;12.80;90.10;;;;;;5046660;28;19923;-69
2022/09/27 09:29:16;;;;;;;;;;;12.80;90.10;;;;;;5047896;28;19921;-69
2022/09/27 09:32:06;;;;;;;;;;;12.80;90.20;;;;;;5016172;28;20308;-69
2022/09/27 09:34:32;;;;;;;;;;;12.80;90.20;;;;;;5047728;28;19922;-69
2022/09/27 09:37:18;;;;;;;;;;;12.80;90.20;;;;;;5047529;28;19912;-69
2022/09/27 09:39:47;;;;;;;;;;;12.80;90.20;;;;;;5047202;28;19917;-69
2022/09/27 09:42:23;;;;;;;;;;;12.80;90.20;;;;;;5046482;28;19944;-69
2022/09/27 09:44:58;;;;;;;;;;;12.90;90.20;;;;;;5046943;28;19917;-69
2022/09/27 09:47:23;;;;;;;;;;;12.80;90.20;;;;;;5045639;28;20007;-69
2022/09/27 09:49:52;;;;;;;;;;;12.80;90.20;;;;;;5046857;28;19912;-68
2022/09/27 09:52:19;;;;;;;;;;;12.90;90.20;;;;;;5046580;28;19964;-68
2022/09/27 09:55:05;;;;;;;;;;;12.80;90.20;;;;;;5045211;28;19913;-69
2022/09/27 09:57:53;;;;;;;;;;;12.80;90.30;;;;;;5046417;28;19917;-69
2022/09/27 10:00:19;;;;;;;;;;;12.80;90.20;;;;;;5046146;28;20094;-69
2022/09/27 10:02:45;;;;;;;;;;;12.80;90.50;;;;;;5046605;28;20033;-69
2022/09/27 10:05:37;;;;;;;;;;;12.80;90.20;;;;;;5046974;28;19923;-69
2022/09/27 10:08:04;;;;;;;;;;;12.90;90.20;;;;;;5043195;28;20011;-68
2022/09/27 10:10:29;;;;;;;;;;;12.90;90.10;;;;;;5046515;28;19917;-68
2022/09/27 10:12:55;;;;;;;;;;;12.90;90.10;;;;;;5012230;28;19919;-68
2022/09/27 10:15:27;;;;;;;;;;;12.90;90.20;;;;;;5046859;28;20085;-68
2022/09/27 10:17:55;;;;;;;;;;;12.90;90.20;;;;;;5046803;28;19913;-68
2022/09/27 10:20:27;;;;;;;;;;;12.90;90.20;;;;;;5046343;28;19924;-68
2022/09/27 10:22:54;;;;;;;;;;;12.90;90.20;;;;;;5046687;28;20479;-68
2022/09/27 10:25:20;;;;;;;;;;;12.90;90.20;;;;;;5043598;28;19923;-68
2022/09/27 10:27:45;;;;;;;;;;;12.90;90.20;;;;;;5046511;28;20377;-69
2022/09/27 10:30:23;;;;;;;;;;;12.90;90.20;;;;;;5046410;28;20074;-69
2022/09/27 10:32:51;;;;;;;;;;;12.90;90.20;;;;;;5045893;28;19947;-68
2022/09/27 10:35:21;;;;;;;;;;;13.00;90.20;;;;;;5046310;28;20007;-69
2022/09/27 10:37:47;;;;;;;;;;;13.00;90.10;;;;;;5027878;28;19970;-69
2022/09/27 10:40:30;;;;;;;;;;;13.00;90.10;;;;;;5046125;28;19916;-68
2022/09/27 10:42:55;;;;;;;;;;;13.00;90.10;;;;;;5049642;28;19913;-69
2022/09/27 10:45:25;;;;;;;;;;;13.00;90.10;;;;;;5046365;28;19920;-68
2022/09/27 10:47:51;;;;;;;;;;;13.00;90.10;;;;;;5028480;28;19948;-69
2022/09/27 10:50:20;;;;;;;;;;;13.00;90.10;;;;;;5046321;28;19913;-68
2022/09/27 10:52:47;;;;;;;;;;;13.00;90.10;;;;;;5045822;28;19909;-68
2022/09/27 10:55:18;;;;;;;;;;;13.00;90.10;;;;;;5045912;28;19913;-68
2022/09/27 10:57:48;;;;;;;;;;;13.10;90.00;;;;;;5045437;28;19913;-68
2022/09/27 11:00:28;;;;;;;;;;;13.10;90.00;;;;;;5045740;28;19923;-68
2022/09/27 11:03:05;;;;;;;;;;;13.20;89.90;;;;;;5046020;28;19912;-68
2022/09/27 11:05:35;;;;;;;;;;;13.20;90.00;;;;;;5045833;28;19919;-68
2022/09/27 11:08:18;;;;;;;;;;;13.30;89.90;;;;;;5045551;28;19917;-68
2022/09/27 11:10:44;;;;;;;;;;;13.30;89.80;;;;;;5045715;28;19997;-68
2022/09/27 11:13:14;;;;;;;;;;;13.40;89.60;;;;;;5044989;28;19921;-69
2022/09/27 11:15:46;;;;;;;;;;;13.40;89.70;;;;;;5045825;28;20004;-68
2022/09/27 11:18:21;;;;;;;;;;;13.40;89.80;;;;;;5045934;28;20438;-69
2022/09/27 11:21:00;;;;;;;;;;;13.40;89.70;;;;;;5045477;28;19935;-68
2022/09/27 11:23:25;;;;;;;;;;;13.40;89.80;;;;;;5045371;28;20016;-68
2022/09/27 11:25:51;;;;;;;;;;;13.50;89.60;;;;;;5043529;28;19956;-68
2022/09/27 11:28:29;;;;;;;;;;;13.50;89.50;;;;;;5045413;28;19917;-69
2022/09/27 11:31:06;;;;;;;;;;;13.60;89.50;;;;;;5045014;28;19920;-67
2022/09/27 11:33:38;;;;;;;;;;;13.60;89.50;;;;;;5045425;28;19923;-68
2022/09/27 11:36:03;;;;;;;;;;;13.60;89.30;;;;;;5044058;28;19912;-69
2022/09/27 11:38:35;;;;;;;;;;;13.70;89.20;;;;;;5045875;28;19928;-68
2022/09/27 11:41:20;;;;;;;;;;;13.70;89.20;;;;;;5045062;28;19913;-69
2022/09/27 11:43:57;;;;;;;;;;;13.70;89.10;;;;;;5044786;28;20516;-68
2022/09/27 11:46:34;;;;;;;;;;;13.80;88.90;;;;;;5045445;28;19952;-69
2022/09/27 11:49:17;;;;;;;;;;;13.80;88.90;;;;;;5045203;28;20332;-69
2022/09/27 11:52:02;;;;;;;;;;;13.80;88.70;;;;;;5043944;28;19913;-69
2022/09/27 11:54:37;;;;;;;;;;;13.80;88.70;;;;;;5043373;28;19920;-69
2022/09/27 11:57:02;;;;;;;;;;;13.80;88.90;;;;;;5045184;28;19922;-69
2022/09/27 11:59:46;;;;;;;;;;;13.80;88.80;;;;;;5045426;28;19916;-69
2022/09/27 12:02:30;;;;;;;;;;;13.80;88.90;;;;;;5044921;28;19913;-69
2022/09/27 12:05:07;;;;;;;;;;;13.80;88.90;;;;;;5026897;28;20013;-69
2022/09/27 12:07:41;;;;;;;;;;;13.80;88.80;;;;;;5045130;28;19923;-69
2022/09/27 12:10:12;;;;;;;;;;;13.80;88.70;;;;;;5043918;28;19913;-69
2022/09/27 12:12:40;;;;;;;;;;;13.80;88.70;;;;;;5042157;28;19919;-68
2022/09/27 12:15:12;;;;;;;;;;;13.80;88.70;;;;;;5042149;28;19995;-69
2022/09/27 12:17:41;;;;;;;;;;;13.80;89.00;;;;;;5045087;28;19936;-69
2022/09/27 12:20:09;;;;;;;;;;;13.80;88.80;;;;;;5044909;28;19986;-69
2022/09/27 12:22:54;;;;;;;;;;;13.80;88.60;;;;;;5044772;28;19965;-69
2022/09/27 12:25:19;;;;;;;;;;;13.90;88.40;;;;;;5047940;28;20523;-69
2022/09/27 12:27:48;;;;;;;;;;;13.90;88.60;;;;;;5048974;28;20007;-68
2022/09/27 12:30:14;;;;;;;;;;;13.90;88.30;;;;;;5048762;28;19996;-70
2022/09/27 12:32:58;;;;;;;;;;;13.90;88.70;;;;;;5048424;28;20492;-69
2022/09/27 12:35:26;;;;;;;;;;;13.90;88.40;;;;;;5049077;28;19963;-69
2022/09/27 12:38:01;;;;;;;;;;;13.90;88.50;;;;;;5048517;28;20539;-70
2022/09/27 12:40:31;;;;;;;;;;;13.90;88.10;;;;;;5030156;28;20324;-70
2022/09/27 12:42:58;;;;;;;;;;;13.90;88.50;;;;;;5048437;28;20464;-70
2022/09/27 12:45:42;;;;;;;;;;;13.90;88.60;;;;;;5048654;28;19913;-69
2022/09/27 12:48:17;;;;;;;;;;;13.90;88.80;;;;;;5018333;28;19912;-69
2022/09/27 12:50:46;;;;;;;;;;;13.80;88.70;;;;;;5048143;28;20502;-68
2022/09/27 12:53:15;;;;;;;;;;;13.80;89.00;;;;;;5048466;28;19935;-68
2022/09/27 12:55:49;;;;;;;;;;;13.80;89.10;;;;;;5048080;28;20469;-68
2022/09/27 12:58:15;;;;;;;;;;;13.70;89.00;;;;;;5046970;28;19921;-68
2022/09/27 13:00:55;;;;;;;;;;;13.70;89.00;;;;;;5048076;28;19964;-68
2022/09/27 13:03:21;;;;;;;;;;;13.70;89.30;;;;;;5048009;28;19924;-68
2022/09/27 13:06:06;;;;;;;;;;;13.70;89.30;;;;;;5047797;28;19912;-68
2022/09/27 13:08:42;;;;;;;;;;;13.70;89.40;;;;;;5048151;28;19917;-68
2022/09/27 13:11:11;;;;;;;;;;;13.60;89.40;;;;;;5045748;28;19921;-68
2022/09/27 13:13:38;;;;;;;;;;;13.70;89.40;;;;;;5047395;28;19916;-68
2022/09/27 13:16:04;;;;;;;;;;;13.70;89.40;;;;;;5047612;28;19946;-68
2022/09/27 13:18:49;;;;;;;;;;;13.70;89.40;;;;;;5046403;28;20396;-68
2022/09/27 13:21:34;;;;;;;;;;;13.70;89.30;;;;;;5044171;28;19912;-68
2022/09/27 13:24:00;;;;;;;;;;;13.70;89.30;;;;;;5046513;28;19924;-68
2022/09/27 13:26:34;;;;;;;;;;;13.70;89.30;;;;;;5046400;28;19913;-68
2022/09/27 13:29:02;;;;;;;;;;;13.70;89.40;;;;;;5047301;28;19927;-68
2022/09/27 13:31:46;;;;;;;;;;;13.60;89.10;;;;;;5047490;28;20106;-69
2022/09/27 13:34:30;;;;;;;;;;;13.60;89.50;;;;;;5047729;28;20330;-68
2022/09/27 13:36:56;;;;;;;;;;;13.60;89.30;;;;;;5046757;28;19980;-68
2022/09/27 13:39:22;;;;;;;;;;;13.60;89.40;;;;;;5047363;28;19999;-69
2022/09/27 13:41:47;;;;;;;;;;;13.70;90.00;;;;;;5047369;28;19982;-68
2022/09/27 13:44:22;;;;;;;;;;;13.70;89.20;;;;;;5047212;28;19913;-69
2022/09/27 13:46:51;;;;;;;;;;;13.70;89.10;;;;;;5029193;28;19970;-69
2022/09/27 13:49:36;;;;;;;;;;;13.70;89.10;;;;;;5047503;28;20604;-69
2022/09/27 13:52:15;;;;;;;;;;;13.70;89.10;;;;;;5046760;28;20728;-69
2022/09/27 13:54:52;;;;;;;;;;;13.70;89.10;;;;;;5043429;28;20393;-69
2022/09/27 13:57:37;;;;;;;;;;;13.70;89.20;;;;;;5047289;28;19923;-69
2022/09/27 14:00:05;;;;;;;;;;;13.70;89.20;;;;;;5047336;28;19912;-69
2022/09/27 14:02:35;;;;;;;;;;;13.70;89.40;;;;;;5046894;28;20757;-69
2022/09/27 14:05:01;;;;;;;;;;;13.70;89.30;;;;;;5047260;28;20488;-69
2022/09/27 14:07:35;;;;;;;;;;;13.70;89.20;;;;;;5046921;28;19917;-69
2022/09/27 14:10:02;;;;;;;;;;;13.70;89.20;;;;;;5046997;28;19924;-69
2022/09/27 14:12:30;;;;;;;;;;;13.80;89.20;;;;;;5046703;28;19913;-69
2022/09/27 14:14:56;;;;;;;;;;;13.70;89.10;;;;;;5046678;28;19963;-69
2022/09/27 14:17:22;;;;;;;;;;;13.70;89.10;;;;;;5046950;28;19913;-69
2022/09/27 14:19:49;;;;;;;;;;;13.80;89.00;;;;;;5046540;28;19963;-69
2022/09/27 14:22:19;;;;;;;;;;;13.80;89.00;;;;;;5046585;28;20510;-69
2022/09/27 14:24:46;;;;;;;;;;;13.80;89.00;;;;;;5046508;28;19917;-69
2022/09/27 14:27:22;;;;;;;;;;;13.80;88.80;;;;;;5046671;28;20022;-69
2022/09/27 14:29:48;;;;;;;;;;;13.80;88.70;;;;;;5046343;28;20357;-69
2022/09/27 14:32:16;;;;;;;;;;;13.90;88.70;;;;;;5046054;28;19916;-69
2022/09/27 14:34:41;;;;;;;;;;;13.90;88.70;;;;;;5046380;28;19917;-69
2022/09/27 14:37:23;;;;;;;;;;;13.90;88.60;;;;;;5045924;28;19912;-69